sensor_id;sensor_type;location;lat;lon;timestamp;P1;durP1;ratioP1;P2;durP2;ratioP2
36817;SDS011;22761;51.542;16.450;2023-02-28T00:01:27;26.60;;;10.50;;
36817;SDS011;22761;51.542;16.450;2023-02-28T00:03:56;19.30;;;8.50;;
36817;SDS011;22761;51.542;16.450;2023-02-28T00:06:25;19.10;;;9.00;;
36817;SDS011;22761;51.542;16.450;2023-02-28T00:08:53;21.20;;;8.70;;
36817;SDS011;22761;51.542;16.450;2023-02-28T00:11:21;18.80;;;7.90;;
36817;SDS011;22761;51.542;16.450;2023-02-28T00:13:50;17.10;;;8.20;;
36817;SDS011;22761;51.542;16.450;2023-02-28T00:16:19;17.80;;;8.20;;
36817;SDS011;22761;51.542;16.450;2023-02-28T00:18:49;17.80;;;8.50;;
36817;SDS011;22761;51.542;16.450;2023-02-28T00:21:18;15.60;;;7.80;;
36817;SDS011;22761;51.542;16.450;2023-02-28T00:23:47;19.10;;;7.70;;
36817;SDS011;22761;51.542;16.450;2023-02-28T00:26:16;17.20;;;7.80;;
36817;SDS011;22761;51.542;16.450;2023-02-28T00:28:46;21.10;;;8.90;;
36817;SDS011;22761;51.542;16.450;2023-02-28T00:31:16;15.10;;;7.10;;
36817;SDS011;22761;51.542;16.450;2023-02-28T00:33:44;20.00;;;8.60;;
36817;SDS011;22761;51.542;16.450;2023-02-28T00:36:15;19.20;;;8.60;;
36817;SDS011;22761;51.542;16.450;2023-02-28T00:38:43;19.90;;;9.10;;
36817;SDS011;22761;51.542;16.450;2023-02-28T00:41:11;18.10;;;8.00;;
36817;SDS011;22761;51.542;16.450;2023-02-28T00:43:40;19.50;;;8.30;;
36817;SDS011;22761;51.542;16.450;2023-02-28T00:48:39;21.40;;;8.70;;
36817;SDS011;22761;51.542;16.450;2023-02-28T00:51:07;21.60;;;8.50;;
36817;SDS011;22761;51.542;16.450;2023-02-28T00:53:36;25.90;;;8.80;;
36817;SDS011;22761;51.542;16.450;2023-02-28T00:56:04;19.00;;;8.50;;
36817;SDS011;22761;51.542;16.450;2023-02-28T00:58:32;19.10;;;9.40;;
36817;SDS011;22761;51.542;16.450;2023-02-28T01:01:01;20.70;;;9.80;;
36817;SDS011;22761;51.542;16.450;2023-02-28T01:03:29;20.00;;;8.30;;
36817;SDS011;22761;51.542;16.450;2023-02-28T01:05:58;20.00;;;8.90;;
36817;SDS011;22761;51.542;16.450;2023-02-28T01:08:26;16.60;;;8.20;;
36817;SDS011;22761;51.542;16.450;2023-02-28T01:10:55;17.90;;;8.60;;
36817;SDS011;22761;51.542;16.450;2023-02-28T01:13:23;16.40;;;8.10;;
36817;SDS011;22761;51.542;16.450;2023-02-28T01:15:54;14.20;;;7.30;;
36817;SDS011;22761;51.542;16.450;2023-02-28T01:18:25;15.90;;;7.40;;
36817;SDS011;22761;51.542;16.450;2023-02-28T01:20:53;19.50;;;8.50;;
36817;SDS011;22761;51.542;16.450;2023-02-28T01:23:22;15.00;;;7.50;;
36817;SDS011;22761;51.542;16.450;2023-02-28T01:25:51;14.70;;;7.30;;
36817;SDS011;22761;51.542;16.450;2023-02-28T01:28:20;18.20;;;7.50;;
36817;SDS011;22761;51.542;16.450;2023-02-28T01:30:50;16.60;;;7.30;;
36817;SDS011;22761;51.542;16.450;2023-02-28T01:33:19;17.10;;;7.60;;
36817;SDS011;22761;51.542;16.450;2023-02-28T01:35:48;17.70;;;8.70;;
36817;SDS011;22761;51.542;16.450;2023-02-28T01:38:16;18.30;;;8.50;;
36817;SDS011;22761;51.542;16.450;2023-02-28T01:40:50;20.50;;;9.70;;
36817;SDS011;22761;51.542;16.450;2023-02-28T01:45:52;18.50;;;9.00;;
36817;SDS011;22761;51.542;16.450;2023-02-28T01:48:23;18.60;;;9.60;;
36817;SDS011;22761;51.542;16.450;2023-02-28T01:50:54;21.60;;;9.50;;
36817;SDS011;22761;51.542;16.450;2023-02-28T01:53:32;20.80;;;9.10;;
36817;SDS011;22761;51.542;16.450;2023-02-28T01:56:06;19.90;;;9.20;;
36817;SDS011;22761;51.542;16.450;2023-02-28T01:58:35;19.00;;;9.10;;
36817;SDS011;22761;51.542;16.450;2023-02-28T02:01:04;18.90;;;9.40;;
36817;SDS011;22761;51.542;16.450;2023-02-28T02:03:33;20.10;;;10.90;;
36817;SDS011;22761;51.542;16.450;2023-02-28T02:06:03;22.20;;;10.40;;
36817;SDS011;22761;51.542;16.450;2023-02-28T02:08:31;22.40;;;10.70;;
36817;SDS011;22761;51.542;16.450;2023-02-28T02:11:00;21.90;;;10.70;;
36817;SDS011;22761;51.542;16.450;2023-02-28T02:22:10;25.00;;;11.60;;
36817;SDS011;22761;51.542;16.450;2023-02-28T02:36:05;21.70;;;10.80;;
36817;SDS011;22761;51.542;16.450;2023-02-28T02:41:38;23.20;;;10.60;;
36817;SDS011;22761;51.542;16.450;2023-02-28T02:47:14;23.80;;;11.00;;
36817;SDS011;22761;51.542;16.450;2023-02-28T02:49:48;21.70;;;10.70;;
36817;SDS011;22761;51.542;16.450;2023-02-28T02:52:18;24.50;;;11.90;;
36817;SDS011;22761;51.542;16.450;2023-02-28T02:54:50;22.60;;;10.90;;
36817;SDS011;22761;51.542;16.450;2023-02-28T02:57:25;19.40;;;10.70;;
36817;SDS011;22761;51.542;16.450;2023-02-28T02:59:58;22.00;;;11.00;;
36817;SDS011;22761;51.542;16.450;2023-02-28T03:02:28;23.40;;;11.50;;
36817;SDS011;22761;51.542;16.450;2023-02-28T03:05:04;23.10;;;11.40;;
36817;SDS011;22761;51.542;16.450;2023-02-28T03:07:34;24.60;;;12.70;;
36817;SDS011;22761;51.542;16.450;2023-02-28T03:10:25;30.20;;;12.70;;
36817;SDS011;22761;51.542;16.450;2023-02-28T03:13:00;29.90;;;13.20;;
36817;SDS011;22761;51.542;16.450;2023-02-28T03:15:50;28.60;;;12.20;;
36817;SDS011;22761;51.542;16.450;2023-02-28T03:26:24;30.10;;;14.70;;
36817;SDS011;22761;51.542;16.450;2023-02-28T03:29:05;30.30;;;15.00;;
36817;SDS011;22761;51.542;16.450;2023-02-28T03:31:41;30.20;;;13.90;;
36817;SDS011;22761;51.542;16.450;2023-02-28T03:37:06;27.50;;;13.50;;
36817;SDS011;22761;51.542;16.450;2023-02-28T03:39:42;29.00;;;14.20;;
36817;SDS011;22761;51.542;16.450;2023-02-28T03:42:18;25.80;;;13.30;;
36817;SDS011;22761;51.542;16.450;2023-02-28T03:44:53;32.70;;;14.10;;
36817;SDS011;22761;51.542;16.450;2023-02-28T03:47:31;30.30;;;13.80;;
36817;SDS011;22761;51.542;16.450;2023-02-28T03:50:16;28.20;;;14.50;;
36817;SDS011;22761;51.542;16.450;2023-02-28T03:55:30;28.00;;;12.80;;
36817;SDS011;22761;51.542;16.450;2023-02-28T03:58:07;25.70;;;13.00;;
36817;SDS011;22761;51.542;16.450;2023-02-28T04:00:43;33.00;;;14.50;;
36817;SDS011;22761;51.542;16.450;2023-02-28T04:03:14;23.80;;;12.80;;
36817;SDS011;22761;51.542;16.450;2023-02-28T04:05:47;29.50;;;13.30;;
36817;SDS011;22761;51.542;16.450;2023-02-28T04:08:19;28.70;;;14.90;;
36817;SDS011;22761;51.542;16.450;2023-02-28T04:10:53;26.50;;;13.50;;
36817;SDS011;22761;51.542;16.450;2023-02-28T04:13:24;28.90;;;14.20;;
36817;SDS011;22761;51.542;16.450;2023-02-28T04:15:52;27.10;;;14.40;;
36817;SDS011;22761;51.542;16.450;2023-02-28T04:18:21;30.80;;;14.40;;
36817;SDS011;22761;51.542;16.450;2023-02-28T04:20:49;32.30;;;14.50;;
36817;SDS011;22761;51.542;16.450;2023-02-28T04:23:18;31.20;;;14.00;;
36817;SDS011;22761;51.542;16.450;2023-02-28T04:25:46;27.90;;;13.70;;
36817;SDS011;22761;51.542;16.450;2023-02-28T04:28:14;27.90;;;13.60;;
36817;SDS011;22761;51.542;16.450;2023-02-28T04:30:42;30.10;;;14.50;;
36817;SDS011;22761;51.542;16.450;2023-02-28T04:33:10;30.60;;;14.30;;
36817;SDS011;22761;51.542;16.450;2023-02-28T04:35:39;26.20;;;13.30;;
36817;SDS011;22761;51.542;16.450;2023-02-28T04:38:07;30.40;;;14.20;;
36817;SDS011;22761;51.542;16.450;2023-02-28T04:40:35;26.00;;;13.70;;
36817;SDS011;22761;51.542;16.450;2023-02-28T04:43:04;27.20;;;13.20;;
36817;SDS011;22761;51.542;16.450;2023-02-28T04:45:32;30.30;;;14.30;;
36817;SDS011;22761;51.542;16.450;2023-02-28T04:48:01;32.50;;;15.00;;
36817;SDS011;22761;51.542;16.450;2023-02-28T04:50:30;31.90;;;14.30;;
36817;SDS011;22761;51.542;16.450;2023-02-28T04:52:58;27.50;;;13.50;;
36817;SDS011;22761;51.542;16.450;2023-02-28T04:55:26;31.90;;;15.60;;
36817;SDS011;22761;51.542;16.450;2023-02-28T04:57:55;33.00;;;15.00;;
36817;SDS011;22761;51.542;16.450;2023-02-28T05:00:23;28.30;;;15.60;;
36817;SDS011;22761;51.542;16.450;2023-02-28T05:02:51;27.40;;;14.40;;
36817;SDS011;22761;51.542;16.450;2023-02-28T05:05:20;27.90;;;14.00;;
36817;SDS011;22761;51.542;16.450;2023-02-28T05:07:48;27.80;;;14.30;;
36817;SDS011;22761;51.542;16.450;2023-02-28T05:10:17;26.20;;;13.20;;
36817;SDS011;22761;51.542;16.450;2023-02-28T05:12:45;26.70;;;13.30;;
36817;SDS011;22761;51.542;16.450;2023-02-28T05:15:14;30.00;;;13.60;;
36817;SDS011;22761;51.542;16.450;2023-02-28T05:17:43;29.90;;;14.80;;
36817;SDS011;22761;51.542;16.450;2023-02-28T05:20:11;28.30;;;14.00;;
36817;SDS011;22761;51.542;16.450;2023-02-28T05:22:43;27.80;;;14.00;;
36817;SDS011;22761;51.542;16.450;2023-02-28T05:25:12;25.30;;;13.50;;
36817;SDS011;22761;51.542;16.450;2023-02-28T05:27:47;28.40;;;13.80;;
36817;SDS011;22761;51.542;16.450;2023-02-28T05:30:15;31.90;;;14.60;;
36817;SDS011;22761;51.542;16.450;2023-02-28T05:32:44;23.30;;;12.60;;
36817;SDS011;22761;51.542;16.450;2023-02-28T05:35:18;41.20;;;19.50;;
36817;SDS011;22761;51.542;16.450;2023-02-28T05:37:46;26.50;;;13.20;;
36817;SDS011;22761;51.542;16.450;2023-02-28T05:40:14;28.90;;;14.20;;
36817;SDS011;22761;51.542;16.450;2023-02-28T05:42:43;26.60;;;13.10;;
36817;SDS011;22761;51.542;16.450;2023-02-28T05:45:11;29.70;;;14.70;;
36817;SDS011;22761;51.542;16.450;2023-02-28T05:47:42;31.20;;;15.10;;
36817;SDS011;22761;51.542;16.450;2023-02-28T05:50:11;32.50;;;14.70;;
36817;SDS011;22761;51.542;16.450;2023-02-28T05:52:39;30.00;;;13.60;;
36817;SDS011;22761;51.542;16.450;2023-02-28T05:55:07;27.10;;;13.40;;
36817;SDS011;22761;51.542;16.450;2023-02-28T05:57:36;28.60;;;13.80;;
36817;SDS011;22761;51.542;16.450;2023-02-28T06:00:05;27.20;;;12.40;;
36817;SDS011;22761;51.542;16.450;2023-02-28T06:02:39;24.70;;;12.40;;
36817;SDS011;22761;51.542;16.450;2023-02-28T06:05:14;24.40;;;12.10;;
36817;SDS011;22761;51.542;16.450;2023-02-28T06:07:44;24.10;;;13.50;;
36817;SDS011;22761;51.542;16.450;2023-02-28T06:10:12;26.50;;;14.10;;
36817;SDS011;22761;51.542;16.450;2023-02-28T06:12:41;33.50;;;15.70;;
36817;SDS011;22761;51.542;16.450;2023-02-28T06:15:13;45.20;;;17.40;;
36817;SDS011;22761;51.542;16.450;2023-02-28T06:17:42;26.20;;;13.30;;
36817;SDS011;22761;51.542;16.450;2023-02-28T06:20:11;23.00;;;12.40;;
36817;SDS011;22761;51.542;16.450;2023-02-28T06:22:43;38.90;;;16.20;;
36817;SDS011;22761;51.542;16.450;2023-02-28T06:25:11;42.00;;;17.40;;
36817;SDS011;22761;51.542;16.450;2023-02-28T06:27:40;48.50;;;22.20;;
36817;SDS011;22761;51.542;16.450;2023-02-28T06:30:10;39.00;;;18.20;;
36817;SDS011;22761;51.542;16.450;2023-02-28T06:32:39;36.50;;;17.00;;
36817;SDS011;22761;51.542;16.450;2023-02-28T06:35:07;27.90;;;16.10;;
36817;SDS011;22761;51.542;16.450;2023-02-28T06:37:36;42.50;;;19.10;;
36817;SDS011;22761;51.542;16.450;2023-02-28T06:40:08;77.70;;;27.40;;
36817;SDS011;22761;51.542;16.450;2023-02-28T06:42:38;36.50;;;17.00;;
36817;SDS011;22761;51.542;16.450;2023-02-28T06:45:06;58.80;;;24.80;;
36817;SDS011;22761;51.542;16.450;2023-02-28T06:47:37;59.10;;;25.30;;
36817;SDS011;22761;51.542;16.450;2023-02-28T06:50:10;73.20;;;29.50;;
36817;SDS011;22761;51.542;16.450;2023-02-28T06:52:40;43.00;;;21.10;;
36817;SDS011;22761;51.542;16.450;2023-02-28T06:55:08;34.90;;;17.80;;
36817;SDS011;22761;51.542;16.450;2023-02-28T06:57:37;29.60;;;16.60;;
36817;SDS011;22761;51.542;16.450;2023-02-28T07:00:07;29.20;;;14.40;;
36817;SDS011;22761;51.542;16.450;2023-02-28T07:02:36;24.70;;;13.00;;
36817;SDS011;22761;51.542;16.450;2023-02-28T07:05:05;24.50;;;12.90;;
36817;SDS011;22761;51.542;16.450;2023-02-28T07:07:34;24.80;;;13.60;;
36817;SDS011;22761;51.542;16.450;2023-02-28T07:10:04;20.40;;;12.20;;
36817;SDS011;22761;51.542;16.450;2023-02-28T07:12:33;29.30;;;13.30;;
36817;SDS011;22761;51.542;16.450;2023-02-28T07:15:01;26.80;;;13.30;;
36817;SDS011;22761;51.542;16.450;2023-02-28T07:17:29;24.50;;;13.00;;
36817;SDS011;22761;51.542;16.450;2023-02-28T07:19:57;25.20;;;12.80;;
36817;SDS011;22761;51.542;16.450;2023-02-28T07:22:26;24.10;;;12.40;;
36817;SDS011;22761;51.542;16.450;2023-02-28T07:24:54;20.40;;;11.20;;
36817;SDS011;22761;51.542;16.450;2023-02-28T07:27:23;23.40;;;11.80;;
36817;SDS011;22761;51.542;16.450;2023-02-28T07:29:51;21.00;;;11.30;;
36817;SDS011;22761;51.542;16.450;2023-02-28T07:32:20;23.90;;;11.90;;
36817;SDS011;22761;51.542;16.450;2023-02-28T07:34:49;23.20;;;11.40;;
36817;SDS011;22761;51.542;16.450;2023-02-28T07:37:17;18.50;;;10.00;;
36817;SDS011;22761;51.542;16.450;2023-02-28T07:39:46;21.60;;;11.50;;
36817;SDS011;22761;51.542;16.450;2023-02-28T07:42:14;25.00;;;10.00;;
36817;SDS011;22761;51.542;16.450;2023-02-28T07:44:44;21.00;;;10.30;;
36817;SDS011;22761;51.542;16.450;2023-02-28T07:47:13;25.00;;;11.10;;
36817;SDS011;22761;51.542;16.450;2023-02-28T07:49:41;20.00;;;11.00;;
36817;SDS011;22761;51.542;16.450;2023-02-28T07:52:09;22.50;;;11.60;;
36817;SDS011;22761;51.542;16.450;2023-02-28T07:54:39;20.20;;;10.50;;
36817;SDS011;22761;51.542;16.450;2023-02-28T07:57:07;20.80;;;10.30;;
36817;SDS011;22761;51.542;16.450;2023-02-28T07:59:36;21.00;;;10.30;;
36817;SDS011;22761;51.542;16.450;2023-02-28T08:02:04;19.10;;;10.10;;
36817;SDS011;22761;51.542;16.450;2023-02-28T08:04:32;22.70;;;10.50;;
36817;SDS011;22761;51.542;16.450;2023-02-28T08:07:00;17.70;;;9.30;;
36817;SDS011;22761;51.542;16.450;2023-02-28T08:09:29;21.00;;;11.00;;
36817;SDS011;22761;51.542;16.450;2023-02-28T08:11:58;20.60;;;10.00;;
36817;SDS011;22761;51.542;16.450;2023-02-28T08:14:26;17.10;;;9.30;;
36817;SDS011;22761;51.542;16.450;2023-02-28T08:16:54;19.40;;;9.30;;
36817;SDS011;22761;51.542;16.450;2023-02-28T08:19:23;15.80;;;7.50;;
36817;SDS011;22761;51.542;16.450;2023-02-28T08:21:51;20.00;;;8.00;;
36817;SDS011;22761;51.542;16.450;2023-02-28T08:24:19;15.50;;;7.80;;
36817;SDS011;22761;51.542;16.450;2023-02-28T08:26:48;17.70;;;9.00;;
36817;SDS011;22761;51.542;16.450;2023-02-28T08:29:16;16.10;;;8.10;;
36817;SDS011;22761;51.542;16.450;2023-02-28T08:31:44;16.60;;;8.10;;
36817;SDS011;22761;51.542;16.450;2023-02-28T08:34:13;15.40;;;7.80;;
36817;SDS011;22761;51.542;16.450;2023-02-28T08:36:43;11.20;;;6.30;;
36817;SDS011;22761;51.542;16.450;2023-02-28T08:39:13;12.20;;;7.10;;
36817;SDS011;22761;51.542;16.450;2023-02-28T08:41:42;11.60;;;6.30;;
36817;SDS011;22761;51.542;16.450;2023-02-28T08:44:13;13.20;;;6.20;;
36817;SDS011;22761;51.542;16.450;2023-02-28T08:46:41;12.10;;;6.10;;
36817;SDS011;22761;51.542;16.450;2023-02-28T08:49:10;12.50;;;5.10;;
36817;SDS011;22761;51.542;16.450;2023-02-28T08:51:39;9.70;;;4.70;;
36817;SDS011;22761;51.542;16.450;2023-02-28T08:54:07;6.30;;;3.00;;
36817;SDS011;22761;51.542;16.450;2023-02-28T08:56:36;7.80;;;3.90;;
36817;SDS011;22761;51.542;16.450;2023-02-28T08:59:04;9.80;;;3.80;;
36817;SDS011;22761;51.542;16.450;2023-02-28T09:01:33;5.80;;;2.90;;
36817;SDS011;22761;51.542;16.450;2023-02-28T09:04:01;4.00;;;2.40;;
36817;SDS011;22761;51.542;16.450;2023-02-28T09:06:30;7.80;;;3.90;;
36817;SDS011;22761;51.542;16.450;2023-02-28T09:09:00;6.30;;;2.80;;
36817;SDS011;22761;51.542;16.450;2023-02-28T09:11:29;5.30;;;2.80;;
36817;SDS011;22761;51.542;16.450;2023-02-28T09:13:58;4.40;;;2.50;;
36817;SDS011;22761;51.542;16.450;2023-02-28T09:18:57;6.70;;;3.60;;
36817;SDS011;22761;51.542;16.450;2023-02-28T09:21:25;6.70;;;3.60;;
36817;SDS011;22761;51.542;16.450;2023-02-28T09:23:54;4.70;;;2.70;;
36817;SDS011;22761;51.542;16.450;2023-02-28T09:26:23;3.30;;;2.20;;
36817;SDS011;22761;51.542;16.450;2023-02-28T09:28:53;16.00;;;7.00;;
36817;SDS011;22761;51.542;16.450;2023-02-28T09:31:23;5.00;;;3.10;;
36817;SDS011;22761;51.542;16.450;2023-02-28T09:33:54;7.20;;;4.00;;
36817;SDS011;22761;51.542;16.450;2023-02-28T09:36:25;5.10;;;3.10;;
36817;SDS011;22761;51.542;16.450;2023-02-28T09:39:08;9.60;;;4.40;;
36817;SDS011;22761;51.542;16.450;2023-02-28T09:41:38;7.60;;;3.80;;
36817;SDS011;22761;51.542;16.450;2023-02-28T09:44:38;8.00;;;4.10;;
36817;SDS011;22761;51.542;16.450;2023-02-28T09:50:06;6.30;;;2.90;;
36817;SDS011;22761;51.542;16.450;2023-02-28T09:52:45;8.70;;;4.60;;
36817;SDS011;22761;51.542;16.450;2023-02-28T09:57:50;8.70;;;4.70;;
36817;SDS011;22761;51.542;16.450;2023-02-28T10:00:24;4.40;;;2.60;;
36817;SDS011;22761;51.542;16.450;2023-02-28T10:03:27;5.60;;;3.10;;
36817;SDS011;22761;51.542;16.450;2023-02-28T10:06:10;6.90;;;3.70;;
36817;SDS011;22761;51.542;16.450;2023-02-28T10:08:50;6.70;;;2.90;;
36817;SDS011;22761;51.542;16.450;2023-02-28T10:11:26;4.50;;;3.20;;
36817;SDS011;22761;51.542;16.450;2023-02-28T10:16:34;6.50;;;3.50;;
36817;SDS011;22761;51.542;16.450;2023-02-28T10:19:06;19.10;;;10.40;;
36817;SDS011;22761;51.542;16.450;2023-02-28T10:21:41;7.30;;;4.20;;
36817;SDS011;22761;51.542;16.450;2023-02-28T10:24:21;6.30;;;3.70;;
36817;SDS011;22761;51.542;16.450;2023-02-28T10:26:58;3.90;;;2.50;;
36817;SDS011;22761;51.542;16.450;2023-02-28T10:29:34;7.50;;;4.70;;
36817;SDS011;22761;51.542;16.450;2023-02-28T10:32:03;4.60;;;2.90;;
36817;SDS011;22761;51.542;16.450;2023-02-28T10:34:32;18.40;;;9.30;;
36817;SDS011;22761;51.542;16.450;2023-02-28T10:37:00;8.30;;;4.10;;
36817;SDS011;22761;51.542;16.450;2023-02-28T10:39:42;6.00;;;2.90;;
36817;SDS011;22761;51.542;16.450;2023-02-28T10:42:28;5.10;;;2.90;;
36817;SDS011;22761;51.542;16.450;2023-02-28T10:45:13;4.20;;;2.80;;
36817;SDS011;22761;51.542;16.450;2023-02-28T10:52:55;5.00;;;2.60;;
36817;SDS011;22761;51.542;16.450;2023-02-28T10:55:38;5.80;;;3.50;;
36817;SDS011;22761;51.542;16.450;2023-02-28T10:58:20;6.60;;;3.70;;
36817;SDS011;22761;51.542;16.450;2023-02-28T11:00:53;9.10;;;4.20;;
36817;SDS011;22761;51.542;16.450;2023-02-28T11:03:29;6.60;;;3.80;;
36817;SDS011;22761;51.542;16.450;2023-02-28T11:06:04;5.80;;;3.70;;
36817;SDS011;22761;51.542;16.450;2023-02-28T11:08:34;7.80;;;3.80;;
36817;SDS011;22761;51.542;16.450;2023-02-28T11:11:04;6.20;;;3.90;;
36817;SDS011;22761;51.542;16.450;2023-02-28T11:13:34;7.90;;;4.00;;
36817;SDS011;22761;51.542;16.450;2023-02-28T11:16:04;5.30;;;4.00;;
36817;SDS011;22761;51.542;16.450;2023-02-28T11:18:42;7.00;;;4.60;;
36817;SDS011;22761;51.542;16.450;2023-02-28T11:21:31;8.40;;;4.70;;
36817;SDS011;22761;51.542;16.450;2023-02-28T11:24:24;8.20;;;5.10;;
36817;SDS011;22761;51.542;16.450;2023-02-28T11:26:54;7.70;;;5.20;;
36817;SDS011;22761;51.542;16.450;2023-02-28T11:34:39;7.40;;;5.20;;
36817;SDS011;22761;51.542;16.450;2023-02-28T11:37:16;11.00;;;6.40;;
36817;SDS011;22761;51.542;16.450;2023-02-28T11:39:48;10.00;;;6.00;;
36817;SDS011;22761;51.542;16.450;2023-02-28T11:42:23;8.40;;;5.60;;
36817;SDS011;22761;51.542;16.450;2023-02-28T11:56:16;11.50;;;6.60;;
36817;SDS011;22761;51.542;16.450;2023-02-28T12:07:33;12.30;;;9.00;;
36817;SDS011;22761;51.542;16.450;2023-02-28T12:24:03;13.10;;;9.30;;
36817;SDS011;22761;51.542;16.450;2023-02-28T12:26:46;13.10;;;8.80;;
36817;SDS011;22761;51.542;16.450;2023-02-28T12:29:25;12.10;;;9.30;;
36817;SDS011;22761;51.542;16.450;2023-02-28T12:32:09;12.40;;;9.30;;
36817;SDS011;22761;51.542;16.450;2023-02-28T12:34:45;13.30;;;9.10;;
36817;SDS011;22761;51.542;16.450;2023-02-28T12:37:22;12.90;;;8.80;;
36817;SDS011;22761;51.542;16.450;2023-02-28T12:40:02;12.20;;;9.00;;
36817;SDS011;22761;51.542;16.450;2023-02-28T12:42:48;13.80;;;9.70;;
36817;SDS011;22761;51.542;16.450;2023-02-28T12:45:24;14.70;;;10.10;;
36817;SDS011;22761;51.542;16.450;2023-02-28T12:47:57;11.10;;;8.50;;
36817;SDS011;22761;51.542;16.450;2023-02-28T12:50:30;12.10;;;9.60;;
36817;SDS011;22761;51.542;16.450;2023-02-28T13:09:02;12.00;;;8.70;;
36817;SDS011;22761;51.542;16.450;2023-02-28T13:19:46;11.00;;;8.40;;
36817;SDS011;22761;51.542;16.450;2023-02-28T13:22:38;13.00;;;8.90;;
36817;SDS011;22761;51.542;16.450;2023-02-28T13:27:54;11.10;;;8.90;;
36817;SDS011;22761;51.542;16.450;2023-02-28T13:34:04;14.20;;;10.20;;
36817;SDS011;22761;51.542;16.450;2023-02-28T13:36:31;12.10;;;9.00;;
36817;SDS011;22761;51.542;16.450;2023-02-28T13:39:44;14.20;;;9.30;;
36817;SDS011;22761;51.542;16.450;2023-02-28T13:42:22;12.30;;;8.10;;
36817;SDS011;22761;51.542;16.450;2023-02-28T13:47:38;16.30;;;9.50;;
36817;SDS011;22761;51.542;16.450;2023-02-28T14:07:09;12.80;;;9.20;;
36817;SDS011;22761;51.542;16.450;2023-02-28T14:09:54;10.70;;;8.10;;
36817;SDS011;22761;51.542;16.450;2023-02-28T14:18:01;10.50;;;7.30;;
36817;SDS011;22761;51.542;16.450;2023-02-28T14:20:32;9.10;;;7.10;;
36817;SDS011;22761;51.542;16.450;2023-02-28T14:25:32;15.20;;;8.90;;
36817;SDS011;22761;51.542;16.450;2023-02-28T14:31:05;29.60;;;15.00;;
36817;SDS011;22761;51.542;16.450;2023-02-28T14:36:32;12.20;;;7.60;;
36817;SDS011;22761;51.542;16.450;2023-02-28T14:39:15;13.30;;;8.50;;
36817;SDS011;22761;51.542;16.450;2023-02-28T14:41:45;10.50;;;8.10;;
36817;SDS011;22761;51.542;16.450;2023-02-28T14:46:48;13.60;;;8.80;;
36817;SDS011;22761;51.542;16.450;2023-02-28T14:49:28;10.10;;;7.40;;
36817;SDS011;22761;51.542;16.450;2023-02-28T14:52:09;10.70;;;7.30;;
36817;SDS011;22761;51.542;16.450;2023-02-28T14:54:42;12.20;;;8.10;;
36817;SDS011;22761;51.542;16.450;2023-02-28T14:57:25;11.90;;;8.00;;
36817;SDS011;22761;51.542;16.450;2023-02-28T15:02:42;12.40;;;8.70;;
36817;SDS011;22761;51.542;16.450;2023-02-28T15:07:46;16.20;;;9.10;;
36817;SDS011;22761;51.542;16.450;2023-02-28T15:12:55;14.60;;;9.80;;
36817;SDS011;22761;51.542;16.450;2023-02-28T15:15:27;12.60;;;8.70;;
36817;SDS011;22761;51.542;16.450;2023-02-28T15:18:07;11.90;;;8.70;;
36817;SDS011;22761;51.542;16.450;2023-02-28T15:20:42;12.10;;;8.90;;
36817;SDS011;22761;51.542;16.450;2023-02-28T15:23:11;15.50;;;8.80;;
36817;SDS011;22761;51.542;16.450;2023-02-28T15:25:39;12.10;;;8.60;;
36817;SDS011;22761;51.542;16.450;2023-02-28T15:28:16;12.50;;;8.90;;
36817;SDS011;22761;51.542;16.450;2023-02-28T15:30:50;17.10;;;9.50;;
36817;SDS011;22761;51.542;16.450;2023-02-28T15:33:52;27.00;;;12.70;;
36817;SDS011;22761;51.542;16.450;2023-02-28T15:36:26;15.40;;;9.70;;
36817;SDS011;22761;51.542;16.450;2023-02-28T15:38:57;14.60;;;8.70;;
36817;SDS011;22761;51.542;16.450;2023-02-28T15:41:40;12.10;;;8.60;;
36817;SDS011;22761;51.542;16.450;2023-02-28T15:44:26;12.40;;;8.80;;
36817;SDS011;22761;51.542;16.450;2023-02-28T15:49:37;13.50;;;8.80;;
36817;SDS011;22761;51.542;16.450;2023-02-28T15:52:12;14.30;;;9.40;;
36817;SDS011;22761;51.542;16.450;2023-02-28T15:54:44;12.70;;;8.70;;
36817;SDS011;22761;51.542;16.450;2023-02-28T15:57:14;16.20;;;10.20;;
36817;SDS011;22761;51.542;16.450;2023-02-28T15:59:52;14.80;;;9.20;;
36817;SDS011;22761;51.542;16.450;2023-02-28T16:02:30;15.10;;;9.00;;
36817;SDS011;22761;51.542;16.450;2023-02-28T16:07:34;15.30;;;9.20;;
36817;SDS011;22761;51.542;16.450;2023-02-28T16:10:04;17.40;;;9.30;;
36817;SDS011;22761;51.542;16.450;2023-02-28T16:12:35;14.70;;;10.00;;
36817;SDS011;22761;51.542;16.450;2023-02-28T16:15:14;16.40;;;9.10;;
36817;SDS011;22761;51.542;16.450;2023-02-28T16:17:46;20.20;;;10.80;;
36817;SDS011;22761;51.542;16.450;2023-02-28T16:20:19;20.50;;;12.20;;
36817;SDS011;22761;51.542;16.450;2023-02-28T16:22:49;16.30;;;10.70;;
36817;SDS011;22761;51.542;16.450;2023-02-28T16:25:18;19.70;;;11.10;;
36817;SDS011;22761;51.542;16.450;2023-02-28T16:30:27;20.70;;;11.30;;
36817;SDS011;22761;51.542;16.450;2023-02-28T16:32:59;28.00;;;13.80;;
36817;SDS011;22761;51.542;16.450;2023-02-28T16:35:27;76.70;;;32.20;;
36817;SDS011;22761;51.542;16.450;2023-02-28T16:37:56;89.80;;;39.70;;
36817;SDS011;22761;51.542;16.450;2023-02-28T16:40:24;66.20;;;33.80;;
36817;SDS011;22761;51.542;16.450;2023-02-28T16:42:57;40.10;;;19.60;;
36817;SDS011;22761;51.542;16.450;2023-02-28T16:47:55;29.70;;;15.80;;
36817;SDS011;22761;51.542;16.450;2023-02-28T16:50:25;21.90;;;12.30;;
36817;SDS011;22761;51.542;16.450;2023-02-28T16:52:56;19.70;;;11.10;;
36817;SDS011;22761;51.542;16.450;2023-02-28T16:55:24;20.60;;;12.20;;
36817;SDS011;22761;51.542;16.450;2023-02-28T16:57:54;22.00;;;12.40;;
36817;SDS011;22761;51.542;16.450;2023-02-28T17:00:24;22.60;;;12.40;;
36817;SDS011;22761;51.542;16.450;2023-02-28T17:02:54;18.30;;;11.30;;
36817;SDS011;22761;51.542;16.450;2023-02-28T17:05:23;20.00;;;11.20;;
36817;SDS011;22761;51.542;16.450;2023-02-28T17:07:51;20.10;;;12.20;;
36817;SDS011;22761;51.542;16.450;2023-02-28T17:10:24;18.60;;;11.40;;
36817;SDS011;22761;51.542;16.450;2023-02-28T17:12:54;18.70;;;11.60;;
36817;SDS011;22761;51.542;16.450;2023-02-28T17:15:36;26.90;;;14.10;;
36817;SDS011;22761;51.542;16.450;2023-02-28T17:18:05;28.40;;;16.40;;
36817;SDS011;22761;51.542;16.450;2023-02-28T17:20:33;36.70;;;20.20;;
36817;SDS011;22761;51.542;16.450;2023-02-28T17:23:02;34.20;;;21.50;;
36817;SDS011;22761;51.542;16.450;2023-02-28T17:25:30;37.50;;;21.70;;
36817;SDS011;22761;51.542;16.450;2023-02-28T17:27:58;43.50;;;24.00;;
36817;SDS011;22761;51.542;16.450;2023-02-28T17:30:26;51.00;;;27.60;;
36817;SDS011;22761;51.542;16.450;2023-02-28T17:32:55;59.00;;;29.70;;
36817;SDS011;22761;51.542;16.450;2023-02-28T17:35:24;64.90;;;30.90;;
36817;SDS011;22761;51.542;16.450;2023-02-28T17:37:54;65.00;;;30.90;;
36817;SDS011;22761;51.542;16.450;2023-02-28T17:40:23;67.20;;;32.20;;
36817;SDS011;22761;51.542;16.450;2023-02-28T17:42:52;73.10;;;33.90;;
36817;SDS011;22761;51.542;16.450;2023-02-28T17:45:20;73.40;;;33.30;;
36817;SDS011;22761;51.542;16.450;2023-02-28T17:47:48;81.60;;;38.90;;